createdAt,value
2023-02-22T00:00:42.374Z,5.07
2023-02-22T00:01:43.205Z,4.98
2023-02-22T00:02:42.729Z,5.02
2023-02-22T00:03:43.679Z,4.92
2023-02-22T00:04:43.630Z,4.96
2023-02-22T00:05:43.284Z,4.86
2023-02-22T00:06:43.430Z,4.76
2023-02-22T00:07:44.171Z,4.83
2023-02-22T00:08:44.700Z,4.88
2023-02-22T00:09:43.947Z,4.88
2023-02-22T00:10:44.099Z,4.80
2023-02-22T00:11:45.497Z,4.79
2023-02-22T00:12:44.379Z,4.76
2023-02-22T00:13:44.558Z,4.83
2023-02-22T00:14:46.636Z,4.83
2023-02-22T00:16:19.279Z,4.70
2023-02-22T00:16:45.237Z,4.75
2023-02-22T00:17:45.698Z,4.67
2023-02-22T00:18:47.028Z,4.79
2023-02-22T00:19:45.523Z,4.76
2023-02-22T00:20:45.699Z,4.79
2023-02-22T00:21:46.670Z,4.72
2023-02-22T00:22:46.051Z,4.76
2023-02-22T00:23:48.192Z,4.73
2023-02-22T00:24:47.169Z,4.76
2023-02-22T00:25:46.555Z,4.86
2023-02-22T00:26:46.694Z,4.67
2023-02-22T00:27:46.824Z,4.84
2023-02-22T00:28:47.676Z,4.70
2023-02-22T00:29:47.185Z,4.64
2023-02-22T00:30:47.360Z,4.72
2023-02-22T00:31:47.530Z,4.62
2023-02-22T00:32:47.743Z,4.58
2023-02-22T00:33:49.700Z,4.51
2023-02-22T00:34:48.079Z,4.59
2023-02-22T00:35:49.683Z,4.51
2023-02-22T00:36:49.172Z,4.51
2023-02-22T00:37:48.572Z,4.50
2023-02-22T00:38:49.721Z,4.37
2023-02-22T00:39:48.865Z,4.34
2023-02-22T00:40:49.617Z,4.37
2023-02-22T00:41:50.276Z,4.33
2023-02-22T00:42:49.570Z,4.29
2023-02-22T00:43:50.633Z,4.32
2023-02-22T00:44:49.794Z,4.26
2023-02-22T00:45:49.984Z,4.32
2023-02-22T00:46:50.186Z,4.29
2023-02-22T00:47:51.687Z,4.33
2023-02-22T00:48:50.582Z,4.22
2023-02-22T00:49:50.733Z,4.15
2023-02-22T00:50:50.883Z,4.01
2023-02-22T00:51:51.716Z,4.07
2023-02-22T00:52:51.248Z,4.04
2023-02-22T00:53:51.428Z,4.03
2023-02-22T00:54:51.578Z,4.04
2023-02-22T00:55:51.744Z,3.96
2023-02-22T00:56:51.924Z,4.00
2023-02-22T00:57:52.105Z,3.98
2023-02-22T00:58:52.293Z,3.98
2023-02-22T00:59:52.428Z,4.00
2023-02-22T01:00:53.222Z,4.03
2023-02-22T01:01:52.800Z,4.04
2023-02-22T01:02:53.047Z,4.06
2023-02-22T01:03:54.179Z,4.06
2023-02-22T01:04:53.424Z,3.97
2023-02-22T01:05:53.640Z,3.86
2023-02-22T01:06:54.728Z,3.88
2023-02-22T01:07:54.717Z,3.88
2023-02-22T01:08:54.111Z,3.88
2023-02-22T01:09:55.244Z,3.83
2023-02-22T01:10:54.546Z,3.82
2023-02-22T01:11:54.756Z,3.82
2023-02-22T01:12:55.742Z,3.96
2023-02-22T01:13:55.717Z,3.98
2023-02-22T01:14:56.107Z,3.86
2023-02-22T01:15:56.725Z,3.88
2023-02-22T01:16:56.292Z,3.98
2023-02-22T01:17:55.852Z,3.94
2023-02-22T01:18:56.068Z,3.88
2023-02-22T01:19:56.259Z,3.94
2023-02-22T01:20:56.755Z,3.98
2023-02-22T01:21:56.566Z,3.89
2023-02-22T01:22:56.779Z,3.94
2023-02-22T01:23:56.955Z,3.92
2023-02-22T01:24:57.153Z,3.97
2023-02-22T01:25:57.311Z,3.83
2023-02-22T01:26:57.728Z,3.97
2023-02-22T01:27:57.672Z,3.92
2023-02-22T01:28:58.724Z,3.83
2023-02-22T01:29:58.720Z,3.86
2023-02-22T01:30:59.946Z,3.86
2023-02-22T01:31:59.203Z,3.88
2023-02-22T01:32:58.487Z,3.72
2023-02-22T01:34:00.181Z,3.76
2023-02-22T01:35:00.675Z,3.71
2023-02-22T01:35:58.916Z,3.62
2023-02-22T01:36:59.714Z,3.65
2023-02-22T01:38:01.176Z,3.75
2023-02-22T01:38:59.422Z,3.67
2023-02-22T01:39:59.602Z,3.62
2023-02-22T01:40:59.778Z,3.71
2023-02-22T01:41:59.965Z,3.76
2023-02-22T01:43:00.676Z,3.78
2023-02-22T01:44:01.175Z,3.67
2023-02-22T01:45:00.460Z,3.72
2023-02-22T01:47:05.076Z,3.70
2023-02-22T01:48:05.701Z,3.75
2023-02-22T01:49:05.433Z,3.68
2023-02-22T01:50:05.570Z,3.70
2023-02-22T01:51:05.701Z,3.72
2023-02-22T01:52:06.708Z,3.82
2023-02-22T01:53:06.007Z,3.75
2023-02-22T01:54:07.263Z,3.80
2023-02-22T01:55:08.492Z,3.70
2023-02-22T01:56:07.751Z,3.75
2023-02-22T01:57:07.873Z,3.71
2023-02-22T01:58:08.811Z,3.72
2023-02-22T01:59:08.175Z,3.75
2023-02-22T02:00:08.341Z,3.82
2023-02-22T02:01:09.301Z,3.76
2023-02-22T02:02:08.866Z,3.79
2023-02-22T02:03:08.877Z,3.80
2023-02-22T02:04:09.042Z,3.70
2023-02-22T02:05:09.220Z,3.60
2023-02-22T02:06:09.387Z,3.54
2023-02-22T02:07:10.162Z,3.60
2023-02-22T02:08:09.683Z,3.46
2023-02-22T02:09:10.873Z,3.50
2023-02-22T02:10:10.031Z,3.46
2023-02-22T02:11:10.805Z,3.46
2023-02-22T02:12:11.312Z,3.43
2023-02-22T02:13:10.588Z,3.54
2023-02-22T02:14:10.753Z,3.53
2023-02-22T02:15:11.843Z,3.52
2023-02-22T02:16:12.822Z,3.46
2023-02-22T02:17:11.323Z,3.34
2023-02-22T02:18:11.521Z,3.36
2023-02-22T02:19:13.308Z,3.31
2023-02-22T02:20:11.821Z,3.24
2023-02-22T02:21:12.798Z,3.30
2023-02-22T02:22:14.309Z,3.24
2023-02-22T02:23:12.859Z,3.46
2023-02-22T02:24:12.623Z,3.25
2023-02-22T02:25:12.777Z,3.34
2023-02-22T02:26:12.945Z,3.28
2023-02-22T02:27:13.106Z,3.20
2023-02-22T02:28:13.273Z,3.16
2023-02-22T02:29:13.435Z,3.21
2023-02-22T02:30:14.323Z,3.09
2023-02-22T02:31:13.728Z,3.16
2023-02-22T02:32:14.066Z,3.00
2023-02-22T02:33:14.008Z,3.13
2023-02-22T02:34:14.846Z,3.03
2023-02-22T02:35:14.514Z,3.10
2023-02-22T02:36:15.603Z,2.91
2023-02-22T02:37:15.348Z,3.00
2023-02-22T02:38:16.819Z,2.92
2023-02-22T02:39:15.094Z,2.91
2023-02-22T02:40:15.295Z,2.88
2023-02-22T02:41:15.835Z,2.87
2023-02-22T02:42:16.368Z,2.81
2023-02-22T02:43:17.822Z,2.84
2023-02-22T02:44:16.076Z,2.81
2023-02-22T02:45:16.264Z,2.92
2023-02-22T02:46:16.869Z,2.85
2023-02-22T02:47:16.683Z,2.88
2023-02-22T02:48:17.850Z,2.77
2023-02-22T02:49:18.311Z,2.79
2023-02-22T02:50:17.815Z,2.70
2023-02-22T02:51:17.728Z,2.87
2023-02-22T02:52:18.354Z,2.84
2023-02-22T02:53:18.356Z,2.82
2023-02-22T02:54:18.819Z,2.76
2023-02-22T02:55:18.728Z,2.87
2023-02-22T02:56:20.776Z,2.71
2023-02-22T02:57:18.520Z,2.70
2023-02-22T02:58:18.703Z,2.73
2023-02-22T02:59:18.926Z,2.82
2023-02-22T03:00:19.100Z,2.73
2023-02-22T03:01:19.939Z,2.76
2023-02-22T03:02:19.408Z,2.98
2023-02-22T03:03:19.602Z,2.89
2023-02-22T03:04:20.817Z,2.84
2023-02-22T03:05:20.822Z,2.81
2023-02-22T03:06:20.118Z,2.84
2023-02-22T03:07:20.883Z,2.82
2023-02-22T03:08:20.414Z,2.79
2023-02-22T03:09:20.582Z,2.73
2023-02-22T03:10:20.745Z,2.84
2023-02-22T03:11:21.766Z,2.66
2023-02-22T03:12:21.151Z,2.76
2023-02-22T03:13:21.324Z,2.77
2023-02-22T03:14:23.327Z,2.79
2023-02-22T03:15:21.696Z,2.82
2023-02-22T03:16:21.910Z,2.85
2023-02-22T03:17:22.027Z,2.87
2023-02-22T03:18:22.214Z,2.92
2023-02-22T03:19:22.397Z,2.97
2023-02-22T03:20:22.566Z,3.03
2023-02-22T03:21:22.764Z,3.02
2023-02-22T03:22:22.978Z,3.12
2023-02-22T03:23:25.194Z,3.33
2023-02-22T03:24:23.345Z,3.60
2023-02-22T03:25:23.495Z,3.75
2023-02-22T03:26:24.318Z,3.70
2023-02-22T03:27:24.359Z,4.19
2023-02-22T03:28:24.042Z,4.40
2023-02-22T03:29:24.221Z,4.51
2023-02-22T03:30:25.403Z,4.51
2023-02-22T03:31:24.577Z,4.64
2023-02-22T03:32:24.739Z,4.76
2023-02-22T03:33:24.877Z,5.16
2023-02-22T03:34:25.056Z,5.50
2023-02-22T03:35:25.260Z,5.91
2023-02-22T03:36:25.409Z,6.32
2023-02-22T03:37:25.600Z,6.71
2023-02-22T03:38:25.817Z,7.02
2023-02-22T03:39:26.019Z,7.26
2023-02-22T03:40:26.254Z,7.44
2023-02-22T03:41:26.330Z,7.44
2023-02-22T03:42:27.364Z,7.74
2023-02-22T03:43:27.380Z,7.74
2023-02-22T03:44:28.328Z,7.81
2023-02-22T03:45:27.870Z,7.89
2023-02-22T03:46:27.141Z,8.08
2023-02-22T03:47:59.740Z,8.14
2023-02-22T03:48:28.862Z,8.18
2023-02-22T03:49:27.740Z,8.20
2023-02-22T03:50:27.990Z,8.25
2023-02-22T03:51:28.856Z,8.35
2023-02-22T03:52:28.904Z,8.44
2023-02-22T03:53:29.408Z,8.47
2023-02-22T03:54:30.363Z,8.50
2023-02-22T03:55:28.946Z,8.53
2023-02-22T03:56:29.003Z,8.50
2023-02-22T03:57:29.216Z,8.71
2023-02-22T03:58:30.857Z,8.71
2023-02-22T03:59:30.400Z,8.62
2023-02-22T04:00:29.905Z,8.79
2023-02-22T04:01:30.854Z,8.87
2023-02-22T04:02:31.862Z,8.88
2023-02-22T04:03:30.901Z,8.83
2023-02-22T04:04:30.466Z,8.83
2023-02-22T04:05:31.255Z,8.83
2023-02-22T04:06:31.860Z,8.91
2023-02-22T04:07:31.163Z,8.93
2023-02-22T04:08:31.342Z,8.97
2023-02-22T04:09:31.543Z,8.88
2023-02-22T04:10:32.416Z,8.88
2023-02-22T04:11:32.897Z,8.90
2023-02-22T04:12:33.356Z,8.84
2023-02-22T04:13:32.417Z,8.84
2023-02-22T04:14:32.549Z,8.81
2023-02-22T04:15:32.717Z,8.91
2023-02-22T04:16:32.908Z,8.87
2023-02-22T04:17:33.065Z,8.81
2023-02-22T04:18:33.413Z,8.83
2023-02-22T04:19:34.398Z,8.86
2023-02-22T04:20:33.680Z,8.84
2023-02-22T04:21:34.862Z,8.90
2023-02-22T04:22:34.881Z,8.99
2023-02-22T04:23:34.863Z,8.88
2023-02-22T04:24:34.278Z,8.88
2023-02-22T04:25:34.911Z,8.88
2023-02-22T04:26:34.562Z,8.94
2023-02-22T04:27:34.746Z,8.94
2023-02-22T04:28:34.915Z,8.94
2023-02-22T04:29:36.860Z,8.93
2023-02-22T04:30:35.322Z,8.94
2023-02-22T04:31:35.397Z,9.02
2023-02-22T04:32:35.572Z,9.02
2023-02-22T04:33:36.261Z,8.90
2023-02-22T04:34:35.922Z,8.97
2023-02-22T04:35:36.095Z,8.99
2023-02-22T04:36:36.411Z,8.96
2023-02-22T04:37:36.461Z,8.96
2023-02-22T04:38:36.634Z,8.97
2023-02-22T04:39:37.417Z,9.04
2023-02-22T04:40:36.969Z,8.97
2023-02-22T04:41:37.133Z,9.09
2023-02-22T04:42:37.306Z,9.09
2023-02-22T04:43:37.488Z,8.93
2023-02-22T04:44:38.864Z,8.87
2023-02-22T04:45:37.925Z,8.83
2023-02-22T04:46:38.198Z,8.91
2023-02-22T04:47:40.366Z,8.88
2023-02-22T04:48:38.460Z,8.88
2023-02-22T04:49:39.422Z,8.91
2023-02-22T04:50:38.824Z,8.93
2023-02-22T04:51:39.426Z,8.87
2023-02-22T04:52:39.125Z,8.93
2023-02-22T04:53:39.301Z,8.90
2023-02-22T04:54:39.495Z,8.84
2023-02-22T04:55:40.366Z,8.96
2023-02-22T04:56:39.907Z,8.90
2023-02-22T04:57:41.871Z,8.87
2023-02-22T04:58:40.912Z,8.91
2023-02-22T04:59:40.444Z,8.94
2023-02-22T05:00:41.376Z,8.88
2023-02-22T05:01:40.805Z,8.96
2023-02-22T05:02:41.981Z,8.99
2023-02-22T05:03:41.118Z,8.91
2023-02-22T05:04:41.327Z,8.94
2023-02-22T05:05:41.534Z,8.97
2023-02-22T05:06:42.436Z,9.02
2023-02-22T05:07:41.865Z,8.94
2023-02-22T05:08:42.055Z,8.99
2023-02-22T05:09:42.277Z,8.96
2023-02-22T05:10:43.410Z,8.99
2023-02-22T05:11:43.427Z,9.01
2023-02-22T05:12:42.868Z,9.02
2023-02-22T05:13:43.948Z,9.01
2023-02-22T05:14:43.456Z,9.10
2023-02-22T05:15:44.008Z,9.02
2023-02-22T05:16:44.413Z,9.01
2023-02-22T05:17:43.823Z,9.13
2023-02-22T05:18:44.026Z,8.99
2023-02-22T05:19:44.419Z,8.96
2023-02-22T05:20:44.458Z,8.88
2023-02-22T05:21:44.661Z,8.81
2023-02-22T05:22:44.860Z,8.83
2023-02-22T05:23:45.880Z,8.86
2023-02-22T05:24:45.161Z,8.83
2023-02-22T05:25:45.352Z,8.79
2023-02-22T05:26:46.379Z,8.86
2023-02-22T05:27:45.785Z,8.84
2023-02-22T05:28:47.872Z,8.78
2023-02-22T05:29:46.138Z,8.72
2023-02-22T05:30:46.441Z,8.69
2023-02-22T05:31:46.625Z,8.75
2023-02-22T05:32:47.145Z,8.71
2023-02-22T05:33:48.455Z,8.83
2023-02-22T05:34:47.123Z,8.79
2023-02-22T05:35:47.875Z,8.75
2023-02-22T05:36:47.538Z,8.78
2023-02-22T05:37:47.710Z,8.72
2023-02-22T05:38:47.907Z,8.71
2023-02-22T05:39:48.921Z,8.73
2023-02-22T05:40:48.301Z,8.83
2023-02-22T05:41:49.381Z,8.75
2023-02-22T05:42:49.381Z,8.79
2023-02-22T05:43:48.939Z,8.84
2023-02-22T05:44:48.948Z,8.72
2023-02-22T05:45:49.920Z,8.87
2023-02-22T05:46:49.321Z,8.81
2023-02-22T05:47:50.418Z,8.69
2023-02-22T05:48:49.673Z,8.65
2023-02-22T05:49:49.815Z,8.69
2023-02-22T05:50:50.012Z,8.68
2023-02-22T05:51:50.878Z,8.79
2023-02-22T05:52:50.369Z,8.73
2023-02-22T05:53:50.538Z,8.76
2023-02-22T05:54:52.382Z,8.66
2023-02-22T05:55:50.877Z,8.78
2023-02-22T05:56:51.031Z,8.71
2023-02-22T05:57:51.199Z,8.75
2023-02-22T05:58:52.812Z,8.73
2023-02-22T05:59:53.376Z,8.79
2023-02-22T06:00:51.741Z,8.79
2023-02-22T06:01:51.921Z,8.75
2023-02-22T06:02:52.082Z,8.66
2023-02-22T06:03:52.239Z,8.68
2023-02-22T06:04:52.422Z,8.68
2023-02-22T06:05:52.587Z,8.72
2023-02-22T06:06:52.748Z,8.73
2023-02-22T06:07:54.389Z,8.73
2023-02-22T06:08:53.118Z,8.76
2023-02-22T06:09:53.279Z,8.83
2023-02-22T06:10:53.938Z,8.84
2023-02-22T06:11:54.585Z,8.81
2023-02-22T06:12:54.836Z,8.84
2023-02-22T06:13:54.774Z,8.79
2023-02-22T06:14:54.193Z,8.87
2023-02-22T06:15:54.415Z,8.78
2023-02-22T06:16:54.504Z,8.78
2023-02-22T06:17:54.663Z,8.83
2023-02-22T06:18:54.811Z,8.83
2023-02-22T06:19:54.968Z,8.83
2023-02-22T06:20:55.156Z,8.75
2023-02-22T06:21:55.317Z,8.86
2023-02-22T06:22:55.465Z,8.87
2023-02-22T06:23:55.632Z,8.81
2023-02-22T06:24:56.395Z,8.88
2023-02-22T06:25:55.914Z,8.79
2023-02-22T06:26:56.745Z,8.78
2023-02-22T06:27:57.887Z,8.79
2023-02-22T06:28:57.380Z,8.76
2023-02-22T06:29:57.425Z,8.90
2023-02-22T06:30:56.781Z,8.81
2023-02-22T06:31:57.014Z,8.84
2023-02-22T06:32:57.034Z,8.81
2023-02-22T06:33:57.170Z,8.84
2023-02-22T06:34:57.410Z,8.91
2023-02-22T06:35:57.553Z,8.91
2023-02-22T06:36:59.922Z,8.93
2023-02-22T06:37:59.427Z,8.86
2023-02-22T06:38:58.037Z,8.96
2023-02-22T06:40:04.973Z,8.90
2023-02-22T06:41:02.884Z,8.90
2023-02-22T06:41:58.568Z,8.93
2023-02-22T06:42:58.732Z,8.87
2023-02-22T06:43:58.882Z,8.88
2023-02-22T06:44:59.030Z,8.88
2023-02-22T06:45:59.224Z,8.88
2023-02-22T06:46:59.340Z,8.93
2023-02-22T06:47:59.542Z,8.99
2023-02-22T06:49:01.470Z,9.06
2023-02-22T06:49:59.837Z,9.06
2023-02-22T06:51:01.883Z,9.01
2023-02-22T06:52:00.884Z,9.10
2023-02-22T06:53:00.421Z,9.04
2023-02-22T06:54:00.601Z,9.09
2023-02-22T06:55:00.781Z,9.04
2023-02-22T06:56:03.388Z,9.09
2023-02-22T06:57:01.144Z,9.05
2023-02-22T06:58:01.353Z,9.04
2023-02-22T06:59:02.688Z,9.10
2023-02-22T07:00:02.692Z,9.10
2023-02-22T07:01:02.422Z,9.15
2023-02-22T07:02:01.939Z,9.05
2023-02-22T07:03:02.173Z,9.10
2023-02-22T07:04:02.344Z,9.13
2023-02-22T07:05:02.519Z,9.10
2023-02-22T07:06:02.732Z,9.23
2023-02-22T07:07:02.922Z,9.28
2023-02-22T07:08:03.194Z,9.25
2023-02-22T07:09:03.374Z,9.38
2023-02-22T07:10:04.896Z,9.32
2023-02-22T07:11:03.791Z,9.25
2023-02-22T07:12:03.995Z,9.31
2023-02-22T07:13:04.235Z,9.35
2023-02-22T07:14:04.894Z,9.35
2023-02-22T07:15:05.436Z,9.32
2023-02-22T07:16:05.478Z,9.34
2023-02-22T07:17:05.392Z,9.32
2023-02-22T07:18:05.076Z,9.38
2023-02-22T07:19:05.279Z,9.45
2023-02-22T07:20:05.948Z,9.45
2023-02-22T07:21:05.613Z,9.50
2023-02-22T07:22:05.791Z,9.57
2023-02-22T07:23:05.959Z,9.56
2023-02-22T07:24:06.147Z,9.49
2023-02-22T07:25:06.347Z,9.53
2023-02-22T07:26:07.451Z,9.57
2023-02-22T07:27:06.715Z,9.67
2023-02-22T07:28:06.932Z,9.68
2023-02-22T07:29:07.101Z,9.71
2023-02-22T07:30:07.289Z,9.67
2023-02-22T07:31:08.400Z,9.86
2023-02-22T07:32:08.511Z,9.88
2023-02-22T07:33:08.531Z,9.91
2023-02-22T07:34:08.095Z,9.89
2023-02-22T07:35:08.915Z,9.96
2023-02-22T07:36:08.339Z,10.09
2023-02-22T07:37:08.542Z,10.00
2023-02-22T07:38:08.846Z,10.17
2023-02-22T07:39:08.897Z,10.03
2023-02-22T07:40:10.912Z,10.19
2023-02-22T07:41:09.336Z,10.19
2023-02-22T07:42:09.516Z,10.24
2023-02-22T07:43:09.681Z,10.17
2023-02-22T07:44:10.907Z,10.12
2023-02-22T07:45:10.070Z,10.14
2023-02-22T07:46:10.158Z,10.28
2023-02-22T07:47:10.342Z,10.32
2023-02-22T07:48:11.450Z,10.42
2023-02-22T07:49:10.721Z,10.56
2023-02-22T07:50:10.892Z,10.65
2023-02-22T07:51:11.053Z,10.56
2023-02-22T07:52:13.426Z,10.63
2023-02-22T07:53:11.444Z,10.60
2023-02-22T07:54:11.629Z,10.71
2023-02-22T07:55:11.788Z,10.80
2023-02-22T07:56:12.452Z,10.96
2023-02-22T07:57:12.462Z,11.20
2023-02-22T07:58:12.945Z,11.24
2023-02-22T07:59:12.448Z,11.10
2023-02-22T08:00:12.610Z,11.21
2023-02-22T08:01:12.754Z,11.20
2023-02-22T08:02:12.966Z,11.32
2023-02-22T08:03:13.177Z,11.44
2023-02-22T08:04:14.275Z,11.83
2023-02-22T08:05:14.923Z,11.93
2023-02-22T08:06:14.418Z,12.19
2023-02-22T08:07:13.829Z,12.45
2023-02-22T08:08:14.910Z,12.78
2023-02-22T08:09:15.428Z,12.71
2023-02-22T08:10:14.343Z,12.97
2023-02-22T08:11:14.872Z,13.18
2023-02-22T08:12:15.455Z,13.41
2023-02-22T08:13:15.917Z,13.38
2023-02-22T08:14:15.056Z,13.67
2023-02-22T08:15:16.423Z,13.70
2023-02-22T08:16:15.957Z,13.84
2023-02-22T08:17:15.663Z,13.80
2023-02-22T08:18:15.773Z,13.65
2023-02-22T08:19:15.968Z,13.46
2023-02-22T08:20:18.780Z,13.49
2023-02-22T08:21:17.245Z,13.55
2023-02-22T08:22:16.916Z,13.71
2023-02-22T08:23:16.539Z,13.63
2023-02-22T08:24:17.704Z,13.58
2023-02-22T08:25:16.820Z,13.47
2023-02-22T08:26:16.973Z,13.55
2023-02-22T08:27:17.096Z,13.43
2023-02-22T08:28:17.931Z,13.56
2023-02-22T08:29:17.963Z,13.55
2023-02-22T08:30:18.939Z,13.54
2023-02-22T08:31:18.196Z,13.65
2023-02-22T08:32:18.077Z,13.70
2023-02-22T08:33:20.877Z,13.83
2023-02-22T08:34:19.297Z,13.88
2023-02-22T08:35:19.942Z,13.95
2023-02-22T08:36:18.726Z,14.07
2023-02-22T08:37:18.895Z,14.10
2023-02-22T08:38:19.926Z,14.13
2023-02-22T08:39:19.190Z,14.28
2023-02-22T08:40:19.381Z,14.28
2023-02-22T08:41:19.685Z,14.64
2023-02-22T08:42:20.431Z,14.54
2023-02-22T08:43:19.868Z,14.78
2023-02-22T08:44:20.977Z,14.69
2023-02-22T08:45:20.299Z,14.54
2023-02-22T08:46:20.522Z,14.64
2023-02-22T08:47:22.430Z,14.74
2023-02-22T08:48:20.954Z,15.12
2023-02-22T08:49:21.162Z,15.42
2023-02-22T08:50:21.377Z,15.63
2023-02-22T08:51:21.653Z,16.00
2023-02-22T08:52:21.728Z,16.33
2023-02-22T08:53:23.452Z,16.50
2023-02-22T08:54:22.155Z,16.35
2023-02-22T08:55:22.374Z,16.48
2023-02-22T08:56:22.596Z,16.14
2023-02-22T08:57:22.797Z,15.99
2023-02-22T08:58:23.930Z,15.94
2023-02-22T08:59:23.224Z,15.60
2023-02-22T09:00:23.520Z,15.52
2023-02-22T09:01:32.655Z,15.59
2023-02-22T09:02:25.758Z,15.75
2023-02-22T09:03:24.947Z,15.99
2023-02-22T09:04:24.125Z,16.11
2023-02-22T09:05:24.341Z,16.27
2023-02-22T09:06:24.574Z,16.25
2023-02-22T09:07:24.796Z,16.16
2023-02-22T09:08:26.935Z,15.92
2023-02-22T09:09:25.194Z,15.68
2023-02-22T09:10:26.442Z,15.86
2023-02-22T09:11:27.444Z,15.96
2023-02-22T09:12:26.432Z,16.22
2023-02-22T09:13:25.976Z,16.12
2023-02-22T09:14:26.155Z,16.34
2023-02-22T09:15:26.477Z,16.35
2023-02-22T09:16:26.546Z,16.18
2023-02-22T09:17:27.474Z,16.22
2023-02-22T09:18:30.532Z,16.31
2023-02-22T09:19:29.939Z,16.31
2023-02-22T09:20:27.940Z,16.09
2023-02-22T09:21:27.443Z,16.31
2023-02-22T09:22:27.632Z,16.25
2023-02-22T09:23:27.843Z,16.35
2023-02-22T09:24:28.038Z,16.20
2023-02-22T09:25:28.249Z,16.04
2023-02-22T09:26:28.419Z,15.86
2023-02-22T09:27:28.615Z,15.94
2023-02-22T09:28:29.342Z,15.97
2023-02-22T09:29:31.002Z,16.09
2023-02-22T09:30:29.191Z,16.42
2023-02-22T09:31:29.346Z,16.34
2023-02-22T09:32:30.420Z,16.07
2023-02-22T09:33:29.639Z,16.16
2023-02-22T09:34:29.927Z,16.30
2023-02-22T09:35:29.886Z,16.44
2023-02-22T09:36:30.092Z,16.33
2023-02-22T09:37:30.982Z,16.09
2023-02-22T09:38:30.516Z,15.48
2023-02-22T09:39:31.476Z,15.43
2023-02-22T09:40:31.480Z,15.28
2023-02-22T09:41:53.949Z,15.24
2023-02-22T09:42:31.981Z,15.39
2023-02-22T09:43:31.969Z,15.67
2023-02-22T09:44:31.984Z,15.52
2023-02-22T09:45:32.604Z,15.33
2023-02-22T09:46:31.864Z,15.48
2023-02-22T09:47:32.062Z,15.43
2023-02-22T09:48:32.305Z,15.33
2023-02-22T09:49:32.422Z,15.31
2023-02-22T09:50:33.481Z,15.36
2023-02-22T09:51:33.494Z,15.41
2023-02-22T09:52:33.484Z,15.48
2023-02-22T09:53:33.939Z,15.24
2023-02-22T09:54:33.987Z,14.95
2023-02-22T09:55:33.357Z,15.02
2023-02-22T09:56:35.516Z,14.94
2023-02-22T09:57:34.494Z,14.94
2023-02-22T09:58:34.011Z,15.12
2023-02-22T09:59:35.949Z,14.94
2023-02-22T10:00:34.200Z,14.87
2023-02-22T10:01:34.947Z,14.91
2023-02-22T10:02:35.465Z,14.98
2023-02-22T10:03:34.801Z,14.98
2023-02-22T10:04:34.893Z,15.05
2023-02-22T10:05:35.970Z,14.91
2023-02-22T10:06:35.989Z,14.99
2023-02-22T10:07:35.411Z,14.86
2023-02-22T10:08:39.414Z,14.68
2023-02-22T10:09:35.762Z,14.80
2023-02-22T10:10:36.010Z,14.69
2023-02-22T10:11:36.219Z,14.84
2023-02-22T10:12:36.406Z,15.02
2023-02-22T10:13:37.498Z,15.11
2023-02-22T10:14:36.765Z,15.17
2023-02-22T10:15:36.990Z,15.11
2023-02-22T10:16:38.032Z,15.12
2023-02-22T10:17:37.954Z,15.09
2023-02-22T10:18:38.454Z,15.11
2023-02-22T10:19:37.723Z,15.30
2023-02-22T10:20:37.897Z,15.28
2023-02-22T10:21:38.080Z,15.19
2023-02-22T10:22:38.259Z,14.94
2023-02-22T10:23:38.438Z,14.64
2023-02-22T10:24:39.009Z,14.52
2023-02-22T10:25:39.472Z,14.50
2023-02-22T10:26:39.579Z,14.35
2023-02-22T10:27:39.257Z,14.44
2023-02-22T10:28:40.025Z,14.35
2023-02-22T10:29:40.324Z,14.43
2023-02-22T10:30:39.758Z,14.31
2023-02-22T10:31:40.000Z,14.24
2023-02-22T10:32:40.217Z,14.19
2023-02-22T10:33:40.966Z,14.21
2023-02-22T10:34:40.510Z,14.29
2023-02-22T10:35:41.988Z,14.42
2023-02-22T10:36:41.967Z,14.53
2023-02-22T10:37:42.001Z,14.67
2023-02-22T10:38:41.268Z,14.69
2023-02-22T10:39:41.443Z,14.68
2023-02-22T10:40:43.480Z,14.68
2023-02-22T10:41:41.813Z,14.74
2023-02-22T10:42:41.966Z,14.67
2023-02-22T10:43:42.977Z,14.69
2023-02-22T10:44:42.223Z,14.50
2023-02-22T10:45:42.392Z,14.32
2023-02-22T10:46:42.587Z,14.32
2023-02-22T10:47:43.515Z,14.31
2023-02-22T10:48:42.926Z,14.38
2023-02-22T10:49:44.068Z,14.35
2023-02-22T10:50:44.014Z,14.38
2023-02-22T10:51:43.529Z,14.44
2023-02-22T10:52:43.686Z,14.25
2023-02-22T10:53:43.835Z,14.37
2023-02-22T10:54:44.972Z,14.50
2023-02-22T10:55:44.297Z,14.49
2023-02-22T10:56:45.472Z,14.57
2023-02-22T10:57:44.637Z,14.52
2023-02-22T10:58:44.834Z,14.54
2023-02-22T10:59:45.010Z,14.50
2023-02-22T11:00:46.756Z,14.47
2023-02-22T11:01:46.316Z,14.49
2023-02-22T11:02:45.492Z,14.57
2023-02-22T11:03:45.666Z,14.52
2023-02-22T11:04:45.905Z,14.43
2023-02-22T11:05:45.999Z,14.54
2023-02-22T11:06:46.201Z,14.53
2023-02-22T11:07:46.391Z,14.42
2023-02-22T11:08:47.519Z,14.32
2023-02-22T11:09:47.482Z,14.29
2023-02-22T11:10:47.002Z,14.19
2023-02-22T11:11:47.201Z,14.25
2023-02-22T11:12:47.405Z,14.17
2023-02-22T11:13:48.471Z,14.20
2023-02-22T11:14:47.874Z,14.24
2023-02-22T11:15:48.536Z,14.29
2023-02-22T11:16:48.612Z,14.29
2023-02-22T11:17:48.515Z,14.17
2023-02-22T11:18:48.705Z,14.25
2023-02-22T11:19:48.860Z,14.28
2023-02-22T11:20:50.062Z,14.17
2023-02-22T11:21:49.216Z,14.24
2023-02-22T11:22:49.452Z,14.14
2023-02-22T11:23:50.495Z,14.17
2023-02-22T11:24:49.768Z,14.13
2023-02-22T11:25:50.480Z,14.12
2023-02-22T11:26:50.147Z,14.19
2023-02-22T11:27:50.362Z,14.21
2023-02-22T11:28:50.535Z,14.24
2023-02-22T11:29:50.712Z,14.24
2023-02-22T11:30:50.979Z,14.21
2023-02-22T11:31:51.222Z,14.19
2023-02-22T11:32:51.221Z,14.29
2023-02-22T11:33:52.985Z,14.38
2023-02-22T11:35:00.173Z,14.39
2023-02-22T11:35:53.743Z,14.57
2023-02-22T11:36:52.524Z,14.71
2023-02-22T11:37:52.088Z,14.71
2023-02-22T11:38:52.290Z,14.52
2023-02-22T11:39:52.981Z,14.64
2023-02-22T11:40:53.486Z,14.60
2023-02-22T11:41:52.903Z,14.87
2023-02-22T11:42:54.029Z,14.93
2023-02-22T11:43:53.983Z,14.78
2023-02-22T11:44:53.510Z,14.84
2023-02-22T11:45:59.053Z,14.95
2023-02-22T11:46:56.482Z,14.74
2023-02-22T11:47:54.488Z,14.54
2023-02-22T11:48:54.148Z,14.46
2023-02-22T11:49:54.535Z,14.38
2023-02-22T11:50:55.561Z,14.49
2023-02-22T11:51:55.579Z,14.50
2023-02-22T11:52:56.501Z,14.49
2023-02-22T11:53:55.126Z,14.60
2023-02-22T11:54:55.581Z,14.54
2023-02-22T11:55:56.016Z,14.57
2023-02-22T11:56:55.702Z,14.75
2023-02-22T11:57:55.880Z,14.91
2023-02-22T11:58:56.088Z,14.95
2023-02-22T11:59:56.542Z,14.99
2023-02-22T12:00:57.007Z,14.95
2023-02-22T12:01:56.679Z,15.19
2023-02-22T12:02:57.591Z,14.91
2023-02-22T12:03:59.078Z,14.81
2023-02-22T12:04:58.566Z,14.78
2023-02-22T12:05:57.386Z,14.80
2023-02-22T12:06:58.498Z,14.78
2023-02-22T12:08:00.108Z,14.72
2023-02-22T12:08:58.991Z,14.67
2023-02-22T12:09:59.028Z,14.68
2023-02-22T12:10:58.350Z,14.83
2023-02-22T12:12:00.013Z,14.86
2023-02-22T12:12:59.046Z,14.84
2023-02-22T12:13:58.864Z,14.98
2023-02-22T12:14:59.044Z,14.91
2023-02-22T12:16:00.538Z,14.74
2023-02-22T12:17:00.522Z,14.72
2023-02-22T12:18:00.697Z,14.68
2023-02-22T12:19:00.540Z,14.67
2023-02-22T12:20:03.007Z,14.72
2023-02-22T12:21:00.441Z,14.65
2023-02-22T12:22:00.410Z,14.49
2023-02-22T12:23:01.063Z,14.65
2023-02-22T12:24:00.748Z,14.88
2023-02-22T12:25:09.919Z,14.87
2023-02-22T12:26:03.059Z,15.12
2023-02-22T12:27:02.033Z,15.09
2023-02-22T12:28:05.743Z,15.13
2023-02-22T12:29:03.513Z,15.24
2023-02-22T12:30:01.673Z,15.26
2023-02-22T12:31:03.514Z,15.48
2023-02-22T12:32:02.072Z,15.57
2023-02-22T12:33:05.324Z,15.76
2023-02-22T12:34:03.196Z,15.66
2023-02-22T12:35:04.509Z,15.67
2023-02-22T12:36:03.512Z,15.51
2023-02-22T12:37:02.883Z,15.38
2023-02-22T12:38:04.511Z,15.35
2023-02-22T12:39:05.465Z,15.31
2023-02-22T12:40:03.404Z,15.31
2023-02-22T12:41:05.369Z,15.27
2023-02-22T12:42:03.719Z,15.49
2023-02-22T12:43:03.869Z,15.52
2023-02-22T12:44:04.016Z,15.74
2023-02-22T12:45:06.800Z,15.56
2023-02-22T12:46:05.523Z,15.51
2023-02-22T12:47:04.583Z,15.52
2023-02-22T12:48:04.737Z,15.60
2023-02-22T12:49:05.515Z,15.57
2023-02-22T12:50:05.051Z,15.61
2023-02-22T12:51:06.016Z,15.49
2023-02-22T12:52:20.540Z,15.56
2023-02-22T12:53:07.605Z,15.61
2023-02-22T12:54:05.859Z,15.66
2023-02-22T12:55:06.055Z,15.64
2023-02-22T12:56:06.309Z,15.66
2023-02-22T12:57:06.364Z,15.70
2023-02-22T12:58:06.553Z,15.78
2023-02-22T12:59:06.790Z,15.82
2023-02-22T13:00:08.522Z,15.68
2023-02-22T13:01:07.370Z,15.59
2023-02-22T13:02:09.054Z,15.70
2023-02-22T13:03:07.409Z,15.79
2023-02-22T13:04:20.101Z,15.72
2023-02-22T13:05:11.540Z,15.97
2023-02-22T13:06:07.914Z,15.93
2023-02-22T13:07:08.110Z,15.82
2023-02-22T13:08:08.304Z,15.99
2023-02-22T13:09:09.062Z,15.75
2023-02-22T13:10:10.092Z,15.61
2023-02-22T13:11:08.802Z,15.54